Aviation Digital Data Service (ADDS)

Output produced by METARs form (1547 UTC 23 January 2019)
found at http://www.aviationweather.gov/metar/data/
 
METAR text: SAEZ 231535Z 09010KT 9999 BKN029 28/22 Q1015 NOSIG
Conditions at: SAEZ (BUENOS AIRES/EZE, AR) observed 1535 UTC 23 January 2019
Temperature: 28.0°C (82°F)
Dewpoint: 22.0°C (72°F) [RH = 70%]
Pressure (altimeter): 29.97 inches Hg (1015.0 mb)
Winds: from the E (90 degrees) at 12 MPH (10 knots; 5.1 m/s)
Visibility: 6 or more miles (10+ km)
Ceiling: 2900 feet AGL
Clouds: broken clouds at 2900 feet AGL
Weather: no significant weather observed at this time

METAR text: SAEZ 231500Z 10010KT 9999 FEW025 SCT200 28/22 Q1014 NOSIG
Conditions at: SAEZ (BUENOS AIRES/EZE, AR) observed 1500 UTC 23 January 2019
Temperature: 28.0°C (82°F)
Dewpoint: 22.0°C (72°F) [RH = 70%]
Pressure (altimeter): 29.94 inches Hg (1014.0 mb)
Winds: from the E (100 degrees) at 12 MPH (10 knots; 5.1 m/s)
Visibility: 6 or more miles (10+ km)
Ceiling: at least 12,000 feet AGL
Clouds: few clouds at 2500 feet AGL
scattered clouds at 20000 feet AGL
Weather: no significant weather observed at this time

METAR text: SAEZ 231400Z 10008KT CAVOK 26/21 Q1015 NOSIG
Conditions at: SAEZ (BUENOS AIRES/EZE, AR) observed 1400 UTC 23 January 2019
Temperature: 26.0°C (79°F)
Dewpoint: 21.0°C (70°F) [RH = 74%]
Pressure (altimeter): 29.97 inches Hg (1015.0 mb)
Winds: from the E (100 degrees) at 9 MPH (8 knots; 4.1 m/s)
Visibility: 6 or more miles (10+ km)
Ceiling: ceiling and visibility are OK
Clouds: unknown
Weather: no significant weather observed at this time

METAR text: SAEZ 231300Z 11012KT 9999 FEW013 SCT200 24/21 Q1015 NOSIG
Conditions at: SAEZ (BUENOS AIRES/EZE, AR) observed 1300 UTC 23 January 2019
Temperature: 24.0°C (75°F)
Dewpoint: 21.0°C (70°F) [RH = 83%]
Pressure (altimeter): 29.97 inches Hg (1015.0 mb)
Winds: from the ESE (110 degrees) at 14 MPH (12 knots; 6.2 m/s)
Visibility: 6 or more miles (10+ km)
Ceiling: at least 12,000 feet AGL
Clouds: few clouds at 1300 feet AGL
scattered clouds at 20000 feet AGL
Weather: no significant weather observed at this time

METAR text: SAEZ 231200Z 12007KT 9999 FEW018 SCT047 23/20 Q1014 BECMG 3000 TSRA SCT008 FEW040CB
Conditions at: SAEZ (BUENOS AIRES/EZE, AR) observed 1200 UTC 23 January 2019
Temperature: 23.0°C (73°F)
Dewpoint: 20.0°C (68°F) [RH = 83%]
Pressure (altimeter): 29.94 inches Hg (1014.0 mb)
Winds: from the ESE (120 degrees) at 8 MPH (7 knots; 3.6 m/s)
Visibility: 6 or more miles (10+ km)
Ceiling: at least 12,000 feet AGL
Clouds: few clouds at 1800 feet AGL
scattered clouds at 4700 feet AGL
Weather: no significant weather observed at this time

METAR text: SAEZ 231146Z 07011KT 9999 FEW024 SCT048 23/20 Q1013 NOSIG
Conditions at: SAEZ (BUENOS AIRES/EZE, AR) observed 1146 UTC 23 January 2019
Temperature: 23.0°C (73°F)
Dewpoint: 20.0°C (68°F) [RH = 83%]
Pressure (altimeter): 29.91 inches Hg (1013.0 mb)
Winds: from the ENE (70 degrees) at 13 MPH (11 knots; 5.7 m/s)
Visibility: 6 or more miles (10+ km)
Ceiling: at least 12,000 feet AGL
Clouds: few clouds at 2400 feet AGL
scattered clouds at 4800 feet AGL
Weather: no significant weather observed at this time

METAR text: SAEZ 231100Z 13011KT 110V160 7000 VCSH BKN012 SCT050 22/20Q1014 3000 TSRA SCT008 FEW040CB
Conditions at: SAEZ (BUENOS AIRES/EZE, AR) observed 1100 UTC 23 January 2019
Temperature: missing
Dewpoint: missing
Pressure (altimeter): 29.94 inches Hg (1014.0 mb)
Winds: from the SE (130 degrees) at 13 MPH (11 knots; 5.7 m/s)
Visibility: 4 miles ( 7 km)
Ceiling: 1200 feet AGL
Clouds: broken clouds at 1200 feet AGL
scattered clouds at 5000 feet AGL
scattered clouds at 800 feet AGL
few clouds at 4000 feet AGL
Weather: VCSH TSRA  (showers in vicinity, rain associated with thunderstorm(s))

METAR text: SAEZ 231000Z 15009KT 9999 BKN009 SCT050 21/20 Q1013 NOSIG
Conditions at: SAEZ (BUENOS AIRES/EZE, AR) observed 1000 UTC 23 January 2019
Temperature: 21.0°C (70°F)
Dewpoint: 20.0°C (68°F) [RH = 94%]
Pressure (altimeter): 29.91 inches Hg (1013.0 mb)
Winds: from the SSE (150 degrees) at 10 MPH (9 knots; 4.6 m/s)
Visibility: 6 or more miles (10+ km)
Ceiling: 900 feet AGL
Clouds: broken clouds at 900 feet AGL
scattered clouds at 5000 feet AGL
Weather: no significant weather observed at this time

METAR text: SAEZ 230923Z 14009KT 9999 BKN009 BKN050 21/20 Q1013 NOSIG
Conditions at: SAEZ (BUENOS AIRES/EZE, AR) observed 0923 UTC 23 January 2019
Temperature: 21.0°C (70°F)
Dewpoint: 20.0°C (68°F) [RH = 94%]
Pressure (altimeter): 29.91 inches Hg (1013.0 mb)
Winds: from the SE (140 degrees) at 10 MPH (9 knots; 4.6 m/s)
Visibility: 6 or more miles (10+ km)
Ceiling: 900 feet AGL
Clouds: broken clouds at 900 feet AGL
broken clouds at 5000 feet AGL
Weather: no significant weather observed at this time

METAR text: SAEZ 230900Z 13010KT 9999 FEW011 SCT050 BKN200 22/20 Q1012 TEMPO 3000 TSRA SCT015 FEW040CB
Conditions at: SAEZ (BUENOS AIRES/EZE, AR) observed 0900 UTC 23 January 2019
Temperature: 22.0°C (72°F)
Dewpoint: 20.0°C (68°F) [RH = 88%]
Pressure (altimeter): 29.88 inches Hg (1012.0 mb)
Winds: from the SE (130 degrees) at 12 MPH (10 knots; 5.1 m/s)
Visibility: 6 or more miles (10+ km)
Ceiling: 20000 feet AGL
Clouds: few clouds at 1100 feet AGL
scattered clouds at 5000 feet AGL
broken clouds at 20000 feet AGL
Weather: no significant weather observed at this time

METAR text: SAEZ 230800Z 13005KT CAVOK 22/21 Q1011 TEMPO 3000 TSRA SCT015FEW040CB
Conditions at: SAEZ (BUENOS AIRES/EZE, AR) observed 0800 UTC 23 January 2019
Temperature: 22.0°C (72°F)
Dewpoint: 21.0°C (70°F) [RH = 94%]
Pressure (altimeter): 29.85 inches Hg (1011.0 mb)
Winds: from the SE (130 degrees) at 6 MPH (5 knots; 2.6 m/s)
Visibility: 6 or more miles (10+ km)
Ceiling: ceiling and visibility are OK
Clouds: unknown
Weather: no significant weather observed at this time

METAR text: SAEZ 230700Z 13005KT CAVOK 23/21 Q1011 TEMPO 3000 TSRA SCT015 FEW040CB
Conditions at: SAEZ (BUENOS AIRES/EZE, AR) observed 0700 UTC 23 January 2019
Temperature: 23.0°C (73°F)
Dewpoint: 21.0°C (70°F) [RH = 89%]
Pressure (altimeter): 29.85 inches Hg (1011.0 mb)
Winds: from the SE (130 degrees) at 6 MPH (5 knots; 2.6 m/s)
Visibility: 6 or more miles (10+ km)
Ceiling: ceiling and visibility are OK
Clouds: unknown
Weather: no significant weather observed at this time

METAR text: SAEZ 230600Z 19005KT CAVOK 24/22 Q1011 NOSIG
Conditions at: SAEZ (BUENOS AIRES/EZE, AR) observed 0600 UTC 23 January 2019
Temperature: 24.0°C (75°F)
Dewpoint: 22.0°C (72°F) [RH = 89%]
Pressure (altimeter): 29.85 inches Hg (1011.0 mb)
Winds: from the S (190 degrees) at 6 MPH (5 knots; 2.6 m/s)
Visibility: 6 or more miles (10+ km)
Ceiling: ceiling and visibility are OK
Clouds: unknown
Weather: no significant weather observed at this time

METAR text: SAEZ 230500Z 01002KT CAVOK 25/22 Q1011 NOSIG
Conditions at: SAEZ (BUENOS AIRES/EZE, AR) observed 0500 UTC 23 January 2019
Temperature: 25.0°C (77°F)
Dewpoint: 22.0°C (72°F) [RH = 83%]
Pressure (altimeter): 29.85 inches Hg (1011.0 mb)
Winds: from the N (10 degrees) at 2 MPH (2 knots; 1.0 m/s)
Visibility: 6 or more miles (10+ km)
Ceiling: ceiling and visibility are OK
Clouds: unknown
Weather: no significant weather observed at this time

METAR text: SAEZ 230400Z 04002KT CAVOK 26/22 Q1010 NOSIG
Conditions at: SAEZ (BUENOS AIRES/EZE, AR) observed 0400 UTC 23 January 2019
Temperature: 26.0°C (79°F)
Dewpoint: 22.0°C (72°F) [RH = 79%]
Pressure (altimeter): 29.82 inches Hg (1010.0 mb)
Winds: from the NE (40 degrees) at 2 MPH (2 knots; 1.0 m/s)
Visibility: 6 or more miles (10+ km)
Ceiling: ceiling and visibility are OK
Clouds: unknown
Weather: no significant weather observed at this time

METAR text: SAEZ 230300Z 01005KT 9999 FEW050CB 27/22 Q1010 NOSIG RMK LGHT OBS TO SE
Conditions at: SAEZ (BUENOS AIRES/EZE, AR) observed 0300 UTC 23 January 2019
Temperature: 27.0°C (81°F)
Dewpoint: 22.0°C (72°F) [RH = 74%]
Pressure (altimeter): 29.82 inches Hg (1010.0 mb)
Winds: from the N (10 degrees) at 6 MPH (5 knots; 2.6 m/s)
Visibility: 6 or more miles (10+ km)
Ceiling: at least 12,000 feet AGL
Clouds: few clouds at 5000 feet AGL
Weather: no significant weather observed at this time

METAR text: SAEZ 230200Z 36003KT 310V080 9999 FEW050CB SCT200 28/22 Q1010NOSIG
Conditions at: SAEZ (BUENOS AIRES/EZE, AR) observed 0200 UTC 23 January 2019
Temperature: 28.0°C (82°F)
Dewpoint: 22.0°C (72°F) [RH = 70%]
Pressure (altimeter): missing
Winds: from the N (360 degrees) at 3 MPH (3 knots; 1.5 m/s)
Visibility: 6 or more miles (10+ km)
Ceiling: at least 12,000 feet AGL
Clouds: few clouds at 5000 feet AGL
scattered clouds at 20000 feet AGL
Weather: no significant weather observed at this time

METAR text: SAEZ 230100Z 02002KT 9999 FEW050CB BKN200 28/22 Q1010 NOSIG RMKLGHT OBS TO S
Conditions at: SAEZ (BUENOS AIRES/EZE, AR) observed 0100 UTC 23 January 2019
Temperature: 28.0°C (82°F)
Dewpoint: 22.0°C (72°F) [RH = 70%]
Pressure (altimeter): 29.82 inches Hg (1010.0 mb)
Winds: from the NNE (20 degrees) at 2 MPH (2 knots; 1.0 m/s)
Visibility: 6 or more miles (10+ km)
Ceiling: 20000 feet AGL
Clouds: few clouds at 5000 feet AGL
broken clouds at 20000 feet AGL
Weather: no significant weather observed at this time

METAR text: SAEZ 230000Z 34006KT 9999 FEW050CB BKN200 29/22 Q1008 NOSIG RMK LGHT OBS TO S
Conditions at: SAEZ (BUENOS AIRES/EZE, AR) observed 0000 UTC 23 January 2019
Temperature: 29.0°C (84°F)
Dewpoint: 22.0°C (72°F) [RH = 66%]
Pressure (altimeter): 29.76 inches Hg (1008.0 mb)
Winds: from the NNW (340 degrees) at 7 MPH (6 knots; 3.1 m/s)
Visibility: 6 or more miles (10+ km)
Ceiling: 20000 feet AGL
Clouds: few clouds at 5000 feet AGL
broken clouds at 20000 feet AGL
Weather: no significant weather observed at this time

METAR text: SAEZ 222300Z 36006KT 9999 FEW050TCU BKN200 29/22 Q1007 NOSIG
Conditions at: SAEZ (BUENOS AIRES/EZE, AR) observed 2300 UTC 22 January 2019
Temperature: 29.0°C (84°F)
Dewpoint: 22.0°C (72°F) [RH = 66%]
Pressure (altimeter): 29.73 inches Hg (1007.0 mb)
Winds: from the N (360 degrees) at 7 MPH (6 knots; 3.1 m/s)
Visibility: 6 or more miles (10+ km)
Ceiling: 20000 feet AGL
Clouds: few clouds at 5000 feet AGL
broken clouds at 20000 feet AGL
Weather: no significant weather observed at this time

METAR text: SAEZ 222200Z 34009KT CAVOK 31/22 Q1007 NOSIG
Conditions at: SAEZ (BUENOS AIRES/EZE, AR) observed 2200 UTC 22 January 2019
Temperature: 31.0°C (88°F)
Dewpoint: 22.0°C (72°F) [RH = 59%]
Pressure (altimeter): 29.73 inches Hg (1007.0 mb)
Winds: from the NNW (340 degrees) at 10 MPH (9 knots; 4.6 m/s)
Visibility: 6 or more miles (10+ km)
Ceiling: ceiling and visibility are OK
Clouds: unknown
Weather: no significant weather observed at this time

METAR text: SAEZ 222100Z 32010KT CAVOK 32/22 Q1008 NOSIG
Conditions at: SAEZ (BUENOS AIRES/EZE, AR) observed 2100 UTC 22 January 2019
Temperature: 32.0°C (90°F)
Dewpoint: 22.0°C (72°F) [RH = 56%]
Pressure (altimeter): 29.76 inches Hg (1008.0 mb)
Winds: from the NW (320 degrees) at 12 MPH (10 knots; 5.1 m/s)
Visibility: 6 or more miles (10+ km)
Ceiling: ceiling and visibility are OK
Clouds: unknown
Weather: no significant weather observed at this time

METAR text: SAEZ 222000Z 32010G20KT CAVOK 33/22 Q1008 NOSIG
Conditions at: SAEZ (BUENOS AIRES/EZE, AR) observed 2000 UTC 22 January 2019
Temperature: 33.0°C (91°F)
Dewpoint: 22.0°C (72°F) [RH = 53%]
Pressure (altimeter): 29.76 inches Hg (1008.0 mb)
Winds: from the NW (320 degrees) at 12 MPH (10 knots; 5.1 m/s)
gusting to 23 MPH (20 knots; 10.3 m/s)
Visibility: 6 or more miles (10+ km)
Ceiling: ceiling and visibility are OK
Clouds: unknown
Weather: no significant weather observed at this time

METAR text: SAEZ 221900Z 32011KT CAVOK 33/22 Q1008 NOSIG
Conditions at: SAEZ (BUENOS AIRES/EZE, AR) observed 1900 UTC 22 January 2019
Temperature: 33.0°C (91°F)
Dewpoint: 22.0°C (72°F) [RH = 53%]
Pressure (altimeter): 29.76 inches Hg (1008.0 mb)
Winds: from the NW (320 degrees) at 13 MPH (11 knots; 5.7 m/s)
Visibility: 6 or more miles (10+ km)
Ceiling: ceiling and visibility are OK
Clouds: unknown
Weather: no significant weather observed at this time

METAR text: SAEZ 221800Z 33010KT CAVOK 33/21 Q1009 NOSIG
Conditions at: SAEZ (BUENOS AIRES/EZE, AR) observed 1800 UTC 22 January 2019
Temperature: 33.0°C (91°F)
Dewpoint: 21.0°C (70°F) [RH = 49%]
Pressure (altimeter): 29.79 inches Hg (1009.0 mb)
Winds: from the NNW (330 degrees) at 12 MPH (10 knots; 5.1 m/s)
Visibility: 6 or more miles (10+ km)
Ceiling: ceiling and visibility are OK
Clouds: unknown
Weather: no significant weather observed at this time

METAR text: SAEZ 221700Z 29010KT 9999 SCT047TCU 33/19 Q1009 NOSIG
Conditions at: SAEZ (BUENOS AIRES/EZE, AR) observed 1700 UTC 22 January 2019
Temperature: 33.0°C (91°F)
Dewpoint: 19.0°C (66°F) [RH = 44%]
Pressure (altimeter): 29.79 inches Hg (1009.0 mb)
Winds: from the WNW (290 degrees) at 12 MPH (10 knots; 5.1 m/s)
Visibility: 6 or more miles (10+ km)
Ceiling: at least 12,000 feet AGL
Clouds: scattered clouds at 4700 feet AGL
Weather: no significant weather observed at this time

METAR text: SAEZ 221600Z 29008KT 9999 FEW045TCU SCT050 31/21 Q1010 NOSIG
Conditions at: SAEZ (BUENOS AIRES/EZE, AR) observed 1600 UTC 22 January 2019
Temperature: 31.0°C (88°F)
Dewpoint: 21.0°C (70°F) [RH = 55%]
Pressure (altimeter): 29.82 inches Hg (1010.0 mb)
Winds: from the WNW (290 degrees) at 9 MPH (8 knots; 4.1 m/s)
Visibility: 6 or more miles (10+ km)
Ceiling: at least 12,000 feet AGL
Clouds: few clouds at 4500 feet AGL
scattered clouds at 5000 feet AGL
Weather: no significant weather observed at this time

METAR text: SAEZ 221500Z 32008KT 9999 FEW045TCU SCT047 31/22 Q1010 NOSIG
Conditions at: SAEZ (BUENOS AIRES/EZE, AR) observed 1500 UTC 22 January 2019
Temperature: 31.0°C (88°F)
Dewpoint: 22.0°C (72°F) [RH = 59%]
Pressure (altimeter): 29.82 inches Hg (1010.0 mb)
Winds: from the NW (320 degrees) at 9 MPH (8 knots; 4.1 m/s)
Visibility: 6 or more miles (10+ km)
Ceiling: at least 12,000 feet AGL
Clouds: few clouds at 4500 feet AGL
scattered clouds at 4700 feet AGL
Weather: no significant weather observed at this time

METAR text: SAEZ 221400Z 32010KT CAVOK 30/21 Q1011 NOSIG
Conditions at: SAEZ (BUENOS AIRES/EZE, AR) observed 1400 UTC 22 January 2019
Temperature: 30.0°C (86°F)
Dewpoint: 21.0°C (70°F) [RH = 59%]
Pressure (altimeter): 29.85 inches Hg (1011.0 mb)
Winds: from the NW (320 degrees) at 12 MPH (10 knots; 5.1 m/s)
Visibility: 6 or more miles (10+ km)
Ceiling: ceiling and visibility are OK
Clouds: unknown
Weather: no significant weather observed at this time

METAR text: SAEZ 221300Z 32009KT CAVOK 29/22 Q1011 NOSIG
Conditions at: SAEZ (BUENOS AIRES/EZE, AR) observed 1300 UTC 22 January 2019
Temperature: 29.0°C (84°F)
Dewpoint: 22.0°C (72°F) [RH = 66%]
Pressure (altimeter): 29.85 inches Hg (1011.0 mb)
Winds: from the NW (320 degrees) at 10 MPH (9 knots; 4.6 m/s)
Visibility: 6 or more miles (10+ km)
Ceiling: ceiling and visibility are OK
Clouds: unknown
Weather: no significant weather observed at this time

METAR text: SAEZ 221200Z 32007KT CAVOK 27/21 Q1011 NOSIG
Conditions at: SAEZ (BUENOS AIRES/EZE, AR) observed 1200 UTC 22 January 2019
Temperature: 27.0°C (81°F)
Dewpoint: 21.0°C (70°F) [RH = 70%]
Pressure (altimeter): 29.85 inches Hg (1011.0 mb)
Winds: from the NW (320 degrees) at 8 MPH (7 knots; 3.6 m/s)
Visibility: 6 or more miles (10+ km)
Ceiling: ceiling and visibility are OK
Clouds: unknown
Weather: no significant weather observed at this time

METAR text: SAEZ 221100Z 33007KT CAVOK 25/20 Q1011 NOSIG
Conditions at: SAEZ (BUENOS AIRES/EZE, AR) observed 1100 UTC 22 January 2019
Temperature: 25.0°C (77°F)
Dewpoint: 20.0°C (68°F) [RH = 74%]
Pressure (altimeter): 29.85 inches Hg (1011.0 mb)
Winds: from the NNW (330 degrees) at 8 MPH (7 knots; 3.6 m/s)
Visibility: 6 or more miles (10+ km)
Ceiling: ceiling and visibility are OK
Clouds: unknown
Weather: no significant weather observed at this time

METAR text: SAEZ 221000Z 36004KT CAVOK 23/20 Q1011 NOSIG
Conditions at: SAEZ (BUENOS AIRES/EZE, AR) observed 1000 UTC 22 January 2019
Temperature: 23.0°C (73°F)
Dewpoint: 20.0°C (68°F) [RH = 83%]
Pressure (altimeter): 29.85 inches Hg (1011.0 mb)
Winds: from the N (360 degrees) at 5 MPH (4 knots; 2.1 m/s)
Visibility: 6 or more miles (10+ km)
Ceiling: ceiling and visibility are OK
Clouds: unknown
Weather: no significant weather observed at this time

METAR text: SAEZ 220900Z 36004KT CAVOK 23/19 Q1011 NOSIG
Conditions at: SAEZ (BUENOS AIRES/EZE, AR) observed 0900 UTC 22 January 2019
Temperature: 23.0°C (73°F)
Dewpoint: 19.0°C (66°F) [RH = 78%]
Pressure (altimeter): 29.85 inches Hg (1011.0 mb)
Winds: from the N (360 degrees) at 5 MPH (4 knots; 2.1 m/s)
Visibility: 6 or more miles (10+ km)
Ceiling: ceiling and visibility are OK
Clouds: unknown
Weather: no significant weather observed at this time

METAR text: SAEZ 220800Z 36005KT 9999 SCT047 23/19 Q1010 NOSIG
Conditions at: SAEZ (BUENOS AIRES/EZE, AR) observed 0800 UTC 22 January 2019
Temperature: 23.0°C (73°F)
Dewpoint: 19.0°C (66°F) [RH = 78%]
Pressure (altimeter): 29.82 inches Hg (1010.0 mb)
Winds: from the N (360 degrees) at 6 MPH (5 knots; 2.6 m/s)
Visibility: 6 or more miles (10+ km)
Ceiling: at least 12,000 feet AGL
Clouds: scattered clouds at 4700 feet AGL
Weather: no significant weather observed at this time

METAR text: SAEZ 220700Z 36006KT 9999 SCT045 22/18 Q1010 NOSIG
Conditions at: SAEZ (BUENOS AIRES/EZE, AR) observed 0700 UTC 22 January 2019
Temperature: 22.0°C (72°F)
Dewpoint: 18.0°C (64°F) [RH = 78%]
Pressure (altimeter): 29.82 inches Hg (1010.0 mb)
Winds: from the N (360 degrees) at 7 MPH (6 knots; 3.1 m/s)
Visibility: 6 or more miles (10+ km)
Ceiling: at least 12,000 feet AGL
Clouds: scattered clouds at 4500 feet AGL
Weather: no significant weather observed at this time

METAR text: SAEZ 220600Z 01004KT CAVOK 22/18 Q1011 NOSIG
Conditions at: SAEZ (BUENOS AIRES/EZE, AR) observed 0600 UTC 22 January 2019
Temperature: 22.0°C (72°F)
Dewpoint: 18.0°C (64°F) [RH = 78%]
Pressure (altimeter): 29.85 inches Hg (1011.0 mb)
Winds: from the N (10 degrees) at 5 MPH (4 knots; 2.1 m/s)
Visibility: 6 or more miles (10+ km)
Ceiling: ceiling and visibility are OK
Clouds: unknown
Weather: no significant weather observed at this time

METAR text: SAEZ 220500Z 01004KT CAVOK 23/18 Q1011 NOSIG
Conditions at: SAEZ (BUENOS AIRES/EZE, AR) observed 0500 UTC 22 January 2019
Temperature: 23.0°C (73°F)
Dewpoint: 18.0°C (64°F) [RH = 73%]
Pressure (altimeter): 29.85 inches Hg (1011.0 mb)
Winds: from the N (10 degrees) at 5 MPH (4 knots; 2.1 m/s)
Visibility: 6 or more miles (10+ km)
Ceiling: ceiling and visibility are OK
Clouds: unknown
Weather: no significant weather observed at this time

METAR text: SAEZ 220400Z 36005KT CAVOK 23/18 Q1011 NOSIG
Conditions at: SAEZ (BUENOS AIRES/EZE, AR) observed 0400 UTC 22 January 2019
Temperature: 23.0°C (73°F)
Dewpoint: 18.0°C (64°F) [RH = 73%]
Pressure (altimeter): 29.85 inches Hg (1011.0 mb)
Winds: from the N (360 degrees) at 6 MPH (5 knots; 2.6 m/s)
Visibility: 6 or more miles (10+ km)
Ceiling: ceiling and visibility are OK
Clouds: unknown
Weather: no significant weather observed at this time

Forecast for: SAEZ (BUENOS AIRES/EZE, AR)
Text: TAF SAEZ 231100Z 2312/2412 13010KT 7000 TSRA BKN010 FEW045CB TX28/2319Z TN22/2409Z
Forecast period: 1200 to 1800 UTC 23 January 2019
Forecast type: FROM: standard forecast or significant change
Winds: from the SE (130 degrees) at 12 MPH (10 knots; 5.1 m/s)
Visibility: 4 miles (7 km)
Ceiling: 1000 feet AGL
Clouds: broken clouds at 1000 feet AGL
few clouds at 4500 feet AGL
Weather: TSRA  (rain associated with thunderstorm(s))
Text: TEMPO 2312/2316 16015G25KT 3000 TSRA BKN008 FEW035CB OVC050
Forecast period: 1200 to 1600 UTC 23 January 2019
Forecast type: TEMPORARY: The following changes expected for less than half the time period
Winds: from the SSE (160 degrees) at 17 MPH (15 knots; 7.7 m/s)
gusting to 29 MPH (25 knots; 12.9 m/s)
Visibility: 1.86 miles (2.99 km)
Ceiling: 800 feet AGL
Clouds: broken clouds at 800 feet AGL
few clouds at 3500 feet AGL
overcast cloud deck at 5000 feet AGL
Weather: TSRA  (rain associated with thunderstorm(s))
Text: BECMG 2318/2320 09015KT 9999 NSW SCT030
Forecast period: 1800 UTC 23 January 2019 to 0700 UTC 24 January 2019
Forecast type: BECOMING: Conditions expected to become as follows by 2000 UTC 23 January 2019
Winds: from the E (90 degrees) at 17 MPH (15 knots; 7.7 m/s)
Visibility: 6 or more miles 10+ km)
Ceiling: at least 12,000 feet AGL
Clouds: scattered clouds at 3000 feet AGL
Weather: NSW  (no significant weather)
Text: BECMG 2407/2409 9999 SCT010 BKN030
Forecast period: 0700 to 1200 UTC 24 January 2019
Forecast type: BECOMING: Conditions expected to become as follows by 0900 UTC 24 January 2019
Winds: from the E (90 degrees) at 17 MPH (15 knots; 7.7 m/s)
Visibility: 6 or more miles 10+ km)
Ceiling: 3000 feet AGL
Clouds: scattered clouds at 1000 feet AGL
broken clouds at 3000 feet AGL
Weather: NSW  (no significant weather)